Time;durP1;ratioP1;P1;durP2;ratioP2;P2;SDS_P1;SDS_P2;PMS_P1;PMS_P2;Temp;Humidity;BMP_temperature;BMP_pressure;BME280_temperature;BME280_humidity;BME280_pressure;Samples;Min_cycle;Max_cycle;Signal;HPM_P1;HPM_P2
2022/01/27 00:04:27;;;;;;;34.30;20.53;;;7.30;72.80;;;;;;5092730;28;20082;-61
2022/01/27 00:06:53;;;;;;;36.05;22.52;;;7.30;72.80;;;;;;5094448;28;20032;-61
2022/01/27 00:09:26;;;;;;;35.87;21.77;;;7.30;72.70;;;;;;5109823;28;20035;-61
2022/01/27 00:11:52;;;;;;;37.60;22.10;;;7.30;72.60;;;;;;5094560;28;20409;-61
2022/01/27 00:14:20;;;;;;;36.37;21.27;;;7.30;72.60;;;;;;5094196;28;20021;-61
2022/01/27 00:16:55;;;;;;;35.10;21.10;;;7.30;72.50;;;;;;5093957;28;20032;-61
2022/01/27 00:19:21;;;;;;;30.83;18.90;;;7.40;72.60;;;;;;5094085;28;20047;-61
2022/01/27 00:21:47;;;;;;;37.33;20.93;;;7.40;72.50;;;;;;5094266;28;20093;-61
2022/01/27 00:24:13;;;;;;;34.87;21.13;;;7.40;72.50;;;;;;5093041;28;20399;-61
2022/01/27 00:26:40;;;;;;;30.13;19.30;;;7.40;72.40;;;;;;5094639;28;20032;-61
2022/01/27 00:29:05;;;;;;;32.83;19.33;;;7.40;72.30;;;;;;5093843;28;20365;-61
2022/01/27 00:31:31;;;;;;;30.60;19.13;;;7.40;72.30;;;;;;5093858;28;20039;-61
2022/01/27 00:33:57;;;;;;;30.03;17.70;;;7.40;72.30;;;;;;5092974;28;20028;-61
2022/01/27 00:36:23;;;;;;;36.27;22.80;;;7.40;72.20;;;;;;5094114;28;20121;-61
2022/01/27 00:38:49;;;;;;;46.60;29.90;;;7.40;72.20;;;;;;5093760;28;20028;-61
2022/01/27 00:41:19;;;;;;;42.40;25.23;;;7.40;72.10;;;;;;5093942;28;20028;-61
2022/01/27 00:43:46;;;;;;;35.23;22.80;;;7.40;72.70;;;;;;5094185;28;20043;-61
2022/01/27 00:46:16;;;;;;;30.83;19.33;;;7.30;72.10;;;;;;5093017;28;20035;-61
2022/01/27 00:48:42;;;;;;;32.77;18.77;;;7.30;72.10;;;;;;5094231;28;20039;-61
2022/01/27 00:51:10;;;;;;;30.67;17.07;;;7.30;72.00;;;;;;5093974;28;20027;-61
2022/01/27 00:53:45;;;;;;;25.40;15.37;;;7.40;72.10;;;;;;5093084;28;20024;-61
2022/01/27 00:56:25;;;;;;;26.90;16.00;;;7.30;72.00;;;;;;5094317;28;20040;-58
2022/01/27 01:01:20;;;;;;;27.13;16.27;;;7.30;71.90;;;;;;5094341;28;20341;-59
2022/01/27 01:03:49;;;;;;;25.30;16.27;;;7.40;71.90;;;;;;5093516;28;20098;-59
2022/01/27 01:06:25;;;;;;;24.30;15.43;;;7.40;71.90;;;;;;5093798;28;20432;-59
2022/01/27 01:12:08;;;;;;;30.08;16.33;;;7.40;71.80;;;;;;5096583;28;20166;-59
2022/01/27 01:17:37;;;;;;;25.83;16.00;;;7.40;71.70;;;;;;5015532;28;20057;-59
2022/01/27 01:34:13;;;;;;;28.73;18.47;;;7.40;71.80;;;;;;4961268;28;20041;-59
2022/01/27 01:36:49;;;;;;;25.43;16.40;;;7.30;71.70;;;;;;4960611;28;20046;-59
2022/01/27 01:39:15;;;;;;;30.13;18.47;;;7.40;71.80;;;;;;4976577;28;20105;-58
2022/01/27 01:41:41;;;;;;;31.17;19.07;;;7.30;71.80;;;;;;4976698;28;20491;-59
2022/01/27 01:44:07;;;;;;;32.53;18.00;;;7.30;71.80;;;;;;4976219;28;20066;-59
2022/01/27 01:46:34;;;;;;;32.63;18.37;;;7.30;71.80;;;;;;4943847;28;20078;-59
2022/01/27 01:48:59;;;;;;;27.67;16.73;;;7.30;71.90;;;;;;4975992;28;20042;-59
2022/01/27 01:51:27;;;;;;;31.17;18.97;;;7.30;71.90;;;;;;5007796;28;20041;-59
2022/01/27 01:53:54;;;;;;;31.07;18.07;;;7.30;71.80;;;;;;5053253;28;20108;-59
2022/01/27 01:56:20;;;;;;;31.83;16.63;;;7.30;71.90;;;;;;5054475;28;20045;-59
2022/01/27 01:58:46;;;;;;;30.33;18.27;;;7.30;71.90;;;;;;5038338;28;20044;-59
2022/01/27 02:01:12;;;;;;;31.27;18.93;;;7.30;72.00;;;;;;5054067;28;20041;-61
2022/01/27 02:03:37;;;;;;;32.77;19.27;;;7.30;72.00;;;;;;5054805;28;20473;-59
2022/01/27 02:06:03;;;;;;;29.03;17.83;;;7.30;72.00;;;;;;5054562;28;20036;-59
2022/01/27 02:08:43;;;;;;;31.60;18.77;;;7.30;72.00;;;;;;5075408;28;20039;-59
2022/01/27 02:19:28;;;;;;;27.97;17.43;;;7.30;72.60;;;;;;5095040;28;20047;-59
2022/01/27 02:21:57;;;;;;;29.87;16.30;;;7.30;72.00;;;;;;5095672;28;20043;-59
2022/01/27 02:24:25;;;;;;;27.47;17.47;;;7.30;72.00;;;;;;5095903;28;20080;-59
2022/01/27 02:26:51;;;;;;;29.17;17.53;;;7.30;72.00;;;;;;5096163;28;20032;-59
2022/01/27 02:29:18;;;;;;;32.67;19.42;;;7.30;72.10;;;;;;5096035;28;20023;-59
2022/01/27 02:31:45;;;;;;;31.17;17.50;;;7.30;72.00;;;;;;5094379;28;20033;-59
2022/01/27 02:34:11;;;;;;;32.40;17.90;;;7.30;72.10;;;;;;5096121;28;20039;-59
2022/01/27 02:36:36;;;;;;;30.43;17.37;;;7.30;72.10;;;;;;5095901;28;20024;-59
2022/01/27 02:39:04;;;;;;;30.03;18.03;;;7.30;72.10;;;;;;5096353;28;20448;-59
2022/01/27 02:41:36;;;;;;;26.67;16.27;;;7.30;72.20;;;;;;5079016;28;20032;-59
2022/01/27 02:44:01;;;;;;;;;;;7.30;72.20;;;;;;5076454;28;20036;-59
2022/01/27 02:46:36;;;;;;;29.37;18.37;;;7.20;72.10;;;;;;5092912;28;19919;-59
2022/01/27 02:49:02;;;;;;;;;;;7.20;72.20;;;;;;5096324;28;20377;-59
2022/01/27 02:51:28;;;;;;;32.37;15.70;;;7.20;72.20;;;;;;5094234;28;19999;-59
2022/01/27 02:53:56;;;;;;;26.80;14.83;;;7.10;72.30;;;;;;5095110;28;20024;-61
2022/01/27 02:56:22;;;;;;;28.53;16.67;;;7.20;72.30;;;;;;5095732;28;20039;-59
2022/01/27 02:58:47;;;;;;;28.33;17.87;;;7.20;72.30;;;;;;5095801;28;20032;-59
2022/01/27 03:01:21;;;;;;;30.67;19.17;;;7.20;72.30;;;;;;5090393;28;20029;-59
2022/01/27 03:03:47;;;;;;;32.77;17.43;;;7.20;72.40;;;;;;5092337;28;20107;-59
2022/01/27 03:06:13;;;;;;;32.13;18.07;;;7.30;72.40;;;;;;5099044;28;20504;-59
2022/01/27 03:08:39;;;;;;;29.10;16.50;;;7.30;72.40;;;;;;5094379;28;20030;-59
2022/01/27 03:11:11;;;;;;;35.43;19.10;;;7.30;72.40;;;;;;5093686;28;20066;-59
2022/01/27 03:13:37;;;;;;;31.50;18.80;;;7.30;72.40;;;;;;5095328;28;20341;-59
2022/01/27 03:16:06;;;;;;;26.05;16.10;;;7.30;72.30;;;;;;5094941;28;20035;-58
2022/01/27 03:18:32;;;;;;;29.97;18.87;;;7.30;72.30;;;;;;5094044;28;20123;-59
2022/01/27 03:20:57;;;;;;;30.87;17.20;;;7.30;72.30;;;;;;5094816;28;20076;-59
2022/01/27 03:23:23;;;;;;;25.83;15.63;;;7.40;72.40;;;;;;5094024;28;20487;-59
2022/01/27 03:25:48;;;;;;;31.30;17.83;;;7.30;72.40;;;;;;5094578;28;20028;-59
2022/01/27 03:28:15;;;;;;;26.10;15.70;;;7.40;72.40;;;;;;5093715;28;20021;-59
2022/01/27 03:30:41;;;;;;;26.07;16.27;;;7.40;72.40;;;;;;5093095;28;20043;-59
2022/01/27 03:33:06;;;;;;;27.90;18.13;;;7.40;72.40;;;;;;5094107;28;20361;-59
2022/01/27 03:35:32;;;;;;;32.27;19.40;;;7.40;72.40;;;;;;5093293;28;20116;-59
2022/01/27 03:37:58;;;;;;;28.20;16.70;;;7.40;72.30;;;;;;5094803;28;20040;-59
2022/01/27 03:40:24;;;;;;;29.17;16.43;;;7.40;72.40;;;;;;5094010;28;20058;-58
2022/01/27 03:43:02;;;;;;;26.77;16.27;;;7.40;72.40;;;;;;5094591;28;20032;-58
2022/01/27 03:45:28;;;;;;;27.40;16.33;;;7.40;72.40;;;;;;5076373;28;20040;-59
2022/01/27 03:47:54;;;;;;;31.97;18.03;;;7.40;72.40;;;;;;5093898;28;20042;-59
2022/01/27 03:50:19;;;;;;;28.37;18.13;;;7.40;72.40;;;;;;5094734;28;20038;-59
2022/01/27 03:52:45;;;;;;;29.52;17.15;;;7.40;72.40;;;;;;5076902;28;20028;-59
2022/01/27 03:55:11;;;;;;;25.37;15.07;;;7.40;72.50;;;;;;5093460;28;20032;-60
2022/01/27 03:57:36;;;;;;;30.75;17.38;;;7.40;72.50;;;;;;5094755;28;20057;-59
2022/01/27 04:00:04;;;;;;;28.60;17.70;;;7.40;72.60;;;;;;5094022;28;20042;-59
2022/01/27 04:02:49;;;;;;;24.63;15.60;;;7.40;72.50;;;;;;5094655;28;20051;-59
2022/01/27 04:05:15;;;;;;;28.35;17.00;;;7.40;72.50;;;;;;5092826;28;20449;-59
2022/01/27 04:07:42;;;;;;;27.40;16.23;;;7.40;72.50;;;;;;5093345;28;20036;-59
2022/01/27 04:10:08;;;;;;;25.00;16.47;;;7.40;72.50;;;;;;5094984;28;20028;-59
2022/01/27 04:12:34;;;;;;;28.10;17.37;;;7.40;72.60;;;;;;5093255;28;20712;-59
2022/01/27 04:14:59;;;;;;;27.33;17.20;;;7.40;72.70;;;;;;5093755;28;20028;-58
2022/01/27 04:17:25;;;;;;;27.97;16.90;;;7.40;72.70;;;;;;5094929;28;20020;-59
2022/01/27 04:19:50;;;;;;;28.23;17.83;;;7.40;72.70;;;;;;5093421;28;20123;-59
2022/01/27 04:22:16;;;;;;;28.50;16.83;;;7.40;72.60;;;;;;5094086;28;20521;-58
2022/01/27 04:24:41;;;;;;;26.03;16.27;;;7.50;72.70;;;;;;5094433;28;20031;-59
2022/01/27 04:27:16;;;;;;;29.20;17.30;;;7.50;72.70;;;;;;5094166;28;20021;-59
2022/01/27 04:29:42;;;;;;;31.10;16.10;;;7.50;72.70;;;;;;5094104;28;20105;-60
2022/01/27 04:32:09;;;;;;;29.48;16.92;;;7.50;72.70;;;;;;5094263;28;20028;-59
2022/01/27 04:34:38;;;;;;;28.03;15.83;;;7.40;72.70;;;;;;5094987;28;20412;-58
2022/01/27 04:37:05;;;;;;;28.00;16.00;;;7.40;72.70;;;;;;5094454;28;20028;-59
2022/01/27 04:39:44;;;;;;;29.25;14.75;;;7.40;72.70;;;;;;5093374;28;20452;-59
2022/01/27 04:42:17;;;;;;;26.83;15.93;;;7.40;73.40;;;;;;5094653;28;20034;-59
2022/01/27 04:44:53;;;;;;;27.67;15.97;;;7.40;72.70;;;;;;5094572;28;20024;-59
2022/01/27 04:47:27;;;;;;;25.73;15.27;;;7.50;72.90;;;;;;5098138;28;20095;-59
2022/01/27 04:49:52;;;;;;;31.33;18.90;;;7.50;72.80;;;;;;5098219;28;20077;-59
2022/01/27 04:52:18;;;;;;;29.20;15.67;;;7.40;72.80;;;;;;5097624;28;20111;-60
2022/01/27 04:55:03;;;;;;;29.10;16.17;;;7.40;72.90;;;;;;5097316;28;20043;-59
2022/01/27 04:57:29;;;;;;;31.73;18.57;;;7.50;73.00;;;;;;5097449;28;20032;-59
2022/01/27 04:59:55;;;;;;;26.42;15.05;;;7.40;72.90;;;;;;5097754;28;20032;-59
2022/01/27 05:02:35;;;;;;;26.00;16.07;;;7.40;72.90;;;;;;5097185;28;20097;-59
2022/01/27 05:05:00;;;;;;;25.23;15.30;;;7.50;73.00;;;;;;5097775;28;20036;-59
2022/01/27 05:07:26;;;;;;;24.45;14.82;;;7.50;73.00;;;;;;5097317;28;20350;-58
2022/01/27 05:09:58;;;;;;;28.27;16.17;;;7.50;73.00;;;;;;5097714;28;20020;-59
2022/01/27 05:12:40;;;;;;;25.08;14.30;;;7.50;73.00;;;;;;5097267;28;20032;-59
2022/01/27 05:15:06;;;;;;;22.88;13.38;;;7.50;73.10;;;;;;5096714;28;20350;-59
2022/01/27 05:17:31;;;;;;;25.90;15.23;;;7.50;73.10;;;;;;5096582;28;20073;-59
2022/01/27 05:19:57;;;;;;;22.73;13.87;;;7.50;73.20;;;;;;5095557;28;20101;-59
2022/01/27 05:22:23;;;;;;;24.67;14.90;;;7.50;73.20;;;;;;5097164;28;20040;-59
2022/01/27 05:24:49;;;;;;;26.67;15.20;;;7.50;73.20;;;;;;5096067;28;20047;-59
2022/01/27 05:27:14;;;;;;;26.65;13.68;;;7.50;73.30;;;;;;5097539;28;20441;-59
2022/01/27 05:29:40;;;;;;;25.07;14.73;;;7.50;73.40;;;;;;5097033;28;20044;-59
2022/01/27 05:32:06;;;;;;;26.77;14.73;;;7.40;73.40;;;;;;5097176;28;20115;-59
2022/01/27 05:34:32;;;;;;;21.87;12.67;;;7.50;73.60;;;;;;5096141;28;20103;-59
2022/01/27 05:36:58;;;;;;;25.53;15.17;;;7.50;73.70;;;;;;5096814;28;20038;-59
2022/01/27 05:39:23;;;;;;;27.07;13.93;;;7.50;73.70;;;;;;5096776;28;20109;-59
2022/01/27 05:41:49;;;;;;;22.42;13.60;;;7.50;73.70;;;;;;5097348;28;20103;-59
2022/01/27 05:44:14;;;;;;;26.55;14.82;;;7.40;73.80;;;;;;5096712;28;20035;-59
2022/01/27 05:46:40;;;;;;;25.13;13.57;;;7.50;73.90;;;;;;5095896;28;20020;-59
2022/01/27 05:49:05;;;;;;;26.07;14.17;;;7.50;73.90;;;;;;5095628;28;20066;-59
2022/01/27 05:51:31;;;;;;;27.73;15.27;;;7.50;74.00;;;;;;5095806;28;20172;-59
2022/01/27 05:53:57;;;;;;;23.77;13.47;;;7.50;74.00;;;;;;5096403;28;20078;-59
2022/01/27 05:56:22;;;;;;;25.43;13.80;;;7.50;74.00;;;;;;5094299;28;20103;-59
2022/01/27 05:58:48;;;;;;;24.60;13.27;;;7.60;74.10;;;;;;5096104;28;20028;-59
2022/01/27 06:01:14;;;;;;;21.60;12.52;;;7.50;74.80;;;;;;5095377;28;20024;-59
2022/01/27 06:03:40;;;;;;;23.77;12.25;;;7.60;74.40;;;;;;5076825;28;20038;-60
2022/01/27 06:06:06;;;;;;;27.37;14.60;;;7.60;74.60;;;;;;5095890;28;20055;-59
2022/01/27 06:08:31;;;;;;;21.43;12.77;;;7.50;74.80;;;;;;5094852;28;20433;-60
2022/01/27 06:10:57;;;;;;;27.63;15.57;;;7.50;74.90;;;;;;5096201;28;20024;-59
2022/01/27 06:13:23;;;;;;;29.23;15.47;;;7.50;75.10;;;;;;5095945;28;20035;-59
2022/01/27 06:15:49;;;;;;;25.93;13.80;;;7.50;75.30;;;;;;5095163;28;20460;-60
2022/01/27 06:18:15;;;;;;;25.27;14.83;;;7.50;76.10;;;;;;5095892;28;20033;-59
2022/01/27 06:20:44;;;;;;;27.33;14.40;;;7.50;75.60;;;;;;5094610;28;20097;-59
2022/01/27 06:23:10;;;;;;;27.97;14.93;;;7.50;75.70;;;;;;5095493;28;20036;-59
2022/01/27 06:25:35;;;;;;;30.27;15.57;;;7.50;75.80;;;;;;5094185;28;20039;-59
2022/01/27 06:28:01;;;;;;;23.50;13.87;;;7.50;76.00;;;;;;5095803;28;20035;-59
2022/01/27 06:30:27;;;;;;;25.73;14.17;;;7.50;76.10;;;;;;5095531;28;20097;-59
2022/01/27 06:32:53;;;;;;;21.63;12.43;;;7.50;76.20;;;;;;5096125;28;20020;-59
2022/01/27 06:35:18;;;;;;;22.33;12.57;;;7.60;76.40;;;;;;5096374;28;20107;-59
2022/01/27 06:37:47;;;;;;;20.52;9.98;;;7.60;76.40;;;;;;5096037;28;20442;-59
2022/01/27 06:40:14;;;;;;;20.70;11.80;;;7.60;76.40;;;;;;5096055;28;20027;-59
2022/01/27 06:42:40;;;;;;;25.17;11.98;;;7.60;76.50;;;;;;5112377;28;20043;-59
2022/01/27 06:45:07;;;;;;;20.07;11.80;;;7.70;76.60;;;;;;5095052;28;20039;-59
2022/01/27 06:47:33;;;;;;;18.43;9.73;;;7.70;76.60;;;;;;5094992;28;20039;-59
2022/01/27 06:49:59;;;;;;;18.67;9.33;;;7.70;76.70;;;;;;5094870;28;20020;-59
2022/01/27 06:52:27;;;;;;;19.97;10.80;;;7.70;76.70;;;;;;5096072;28;20028;-59
2022/01/27 06:54:56;;;;;;;21.80;11.17;;;7.80;76.80;;;;;;5095537;28;20043;-59
2022/01/27 06:57:22;;;;;;;23.00;10.83;;;7.80;76.80;;;;;;5093833;28;20024;-59
2022/01/27 06:59:49;;;;;;;20.90;10.57;;;7.80;76.90;;;;;;5111494;28;20032;-59
2022/01/27 07:02:14;;;;;;;19.73;10.50;;;7.80;76.90;;;;;;5095633;28;20028;-59
2022/01/27 07:04:40;;;;;;;19.10;9.57;;;7.80;77.00;;;;;;5095108;28;20024;-59
2022/01/27 07:07:06;;;;;;;18.67;9.10;;;7.90;77.10;;;;;;5076509;28;20086;-59
2022/01/27 07:09:31;;;;;;;18.25;10.00;;;7.90;77.20;;;;;;5095140;28;20040;-59
2022/01/27 07:11:57;;;;;;;18.38;9.88;;;8.00;77.10;;;;;;5094306;28;20020;-59
2022/01/27 07:14:24;;;;;;;20.10;9.70;;;8.10;77.10;;;;;;5093551;28;20028;-59
2022/01/27 07:16:50;;;;;;;16.50;9.57;;;8.10;77.00;;;;;;5095019;28;20466;-59
2022/01/27 07:19:15;;;;;;;22.67;9.63;;;8.10;77.10;;;;;;5095102;28;20425;-60
2022/01/27 07:21:41;;;;;;;17.30;9.90;;;8.10;77.20;;;;;;5094303;28;20039;-59
2022/01/27 07:24:07;;;;;;;19.95;10.35;;;8.10;77.40;;;;;;5095183;28;20047;-60
2022/01/27 07:26:32;;;;;;;18.98;9.32;;;8.00;78.20;;;;;;5095288;28;20402;-59
2022/01/27 07:28:58;;;;;;;17.57;10.13;;;8.00;77.80;;;;;;5093644;28;20024;-60
2022/01/27 07:31:24;;;;;;;19.10;11.17;;;8.00;78.00;;;;;;5093480;28;20503;-61
2022/01/27 07:33:52;;;;;;;19.48;10.40;;;8.00;78.10;;;;;;5094193;28;20496;-60
2022/01/27 07:36:18;;;;;;;19.20;10.40;;;8.00;78.30;;;;;;5093369;28;20032;-62
2022/01/27 07:38:45;;;;;;;21.73;10.13;;;8.00;78.50;;;;;;5094789;28;20035;-59
2022/01/27 07:41:16;;;;;;;19.48;9.98;;;8.00;78.60;;;;;;5093681;28;20023;-59
2022/01/27 07:43:42;;;;;;;21.30;10.02;;;8.10;78.90;;;;;;5093887;28;20057;-59
2022/01/27 07:46:11;;;;;;;17.88;9.00;;;8.00;78.90;;;;;;5093624;28;20063;-59
2022/01/27 07:48:37;;;;;;;20.05;11.15;;;8.00;79.00;;;;;;5094151;28;20043;-60
2022/01/27 07:51:03;;;;;;;23.45;11.27;;;8.00;79.10;;;;;;5075617;28;20016;-59
2022/01/27 07:53:29;;;;;;;20.52;10.35;;;8.00;79.30;;;;;;5092202;28;20024;-59
2022/01/27 07:55:56;;;;;;;21.80;10.50;;;8.00;79.50;;;;;;5092162;28;20368;-59
2022/01/27 07:58:21;;;;;;;17.57;10.00;;;8.00;79.60;;;;;;5093172;28;20403;-60
2022/01/27 08:00:47;;;;;;;21.57;10.63;;;8.00;79.60;;;;;;5093952;28;20088;-60
2022/01/27 08:03:13;;;;;;;19.23;10.07;;;8.00;79.70;;;;;;5094144;28;20028;-61
2022/01/27 08:05:39;;;;;;;21.27;10.17;;;8.00;79.80;;;;;;5092894;28;20107;-60
2022/01/27 08:08:04;;;;;;;20.30;10.98;;;8.00;79.90;;;;;;5073292;28;20077;-62
2022/01/27 08:10:37;;;;;;;20.00;9.57;;;8.00;79.90;;;;;;5081868;28;20389;-59
2022/01/27 08:13:03;;;;;;;18.77;9.53;;;8.00;80.00;;;;;;5076391;28;20028;-60
2022/01/27 08:15:29;;;;;;;17.70;9.77;;;8.00;80.10;;;;;;5093453;28;20036;-59
2022/01/27 08:17:55;;;;;;;19.70;10.70;;;8.00;80.20;;;;;;5089263;28;20139;-60
2022/01/27 08:20:20;;;;;;;17.42;9.60;;;8.00;80.30;;;;;;5093805;28;20034;-59
2022/01/27 08:22:47;;;;;;;17.35;9.13;;;8.00;80.30;;;;;;5095322;28;20070;-59
2022/01/27 08:25:13;;;;;;;16.07;9.50;;;8.00;80.40;;;;;;5095543;28;20040;-59
2022/01/27 08:27:42;;;;;;;18.30;9.77;;;8.10;80.60;;;;;;5094917;28;20337;-59
2022/01/27 08:30:08;;;;;;;17.37;9.97;;;8.10;80.50;;;;;;5094446;28;20096;-60
2022/01/27 08:32:47;;;;;;;21.42;9.43;;;8.10;80.60;;;;;;5095005;28;20032;-59
2022/01/27 08:35:14;;;;;;;18.10;10.32;;;8.10;80.70;;;;;;5098110;28;20479;-60
2022/01/27 08:37:40;;;;;;;16.43;9.00;;;8.10;80.70;;;;;;5096867;28;20024;-60
2022/01/27 08:40:06;;;;;;;17.27;9.60;;;8.10;80.70;;;;;;5098669;28;20039;-60
2022/01/27 08:42:32;;;;;;;14.80;9.13;;;8.20;80.80;;;;;;5097121;28;20043;-60
2022/01/27 08:44:58;;;;;;;15.60;9.27;;;8.20;80.80;;;;;;5096524;28;20035;-60
2022/01/27 08:47:23;;;;;;;15.50;8.83;;;8.20;81.10;;;;;;5096395;28;20038;-60
2022/01/27 08:49:49;;;;;;;17.40;8.60;;;8.10;80.90;;;;;;5097569;28;20031;-59
2022/01/27 08:52:15;;;;;;;18.57;9.70;;;8.10;81.00;;;;;;5097131;28;20081;-59
2022/01/27 08:54:42;;;;;;;20.50;10.68;;;8.10;81.20;;;;;;5096431;28;20024;-60
2022/01/27 08:57:07;;;;;;;18.95;10.43;;;8.10;81.40;;;;;;5096531;28;20032;-60
2022/01/27 08:59:34;;;;;;;17.75;8.90;;;8.10;81.40;;;;;;5096835;28;20540;-59
2022/01/27 09:01:59;;;;;;;17.30;9.07;;;8.10;81.50;;;;;;5097451;28;20032;-59
2022/01/27 09:04:25;;;;;;;19.52;10.15;;;8.10;82.20;;;;;;5096790;28;20085;-60
2022/01/27 09:06:51;;;;;;;13.95;8.35;;;8.20;81.60;;;;;;5079254;28;20052;-60
2022/01/27 09:09:16;;;;;;;18.53;10.37;;;8.20;81.60;;;;;;5097240;28;20475;-60
2022/01/27 09:11:46;;;;;;;15.95;9.48;;;8.20;81.60;;;;;;5097712;28;20428;-60
2022/01/27 09:14:13;;;;;;;19.30;10.40;;;8.20;81.70;;;;;;5097950;28;20035;-60
2022/01/27 09:16:39;;;;;;;17.92;8.60;;;8.20;81.80;;;;;;5095995;28;20032;-60
2022/01/27 09:19:04;;;;;;;18.60;9.73;;;8.20;81.80;;;;;;5096737;28;20036;-60
2022/01/27 09:21:40;;;;;;;17.55;9.45;;;8.20;81.90;;;;;;5097694;28;20341;-59
2022/01/27 09:24:07;;;;;;;17.10;9.50;;;8.20;81.90;;;;;;5097432;28;20033;-60
2022/01/27 09:26:42;;;;;;;17.27;9.32;;;8.20;81.90;;;;;;5097111;28;20046;-59
2022/01/27 09:29:09;;;;;;;14.57;8.45;;;8.20;82.00;;;;;;5096473;28;20032;-60
2022/01/27 09:31:35;;;;;;;17.05;8.57;;;8.30;82.00;;;;;;5097626;28;20042;-59
2022/01/27 09:34:01;;;;;;;16.38;8.23;;;8.30;82.00;;;;;;5096978;28;20024;-59
2022/01/27 09:36:27;;;;;;;15.13;8.88;;;8.30;82.10;;;;;;5097102;28;20039;-58
2022/01/27 09:38:52;;;;;;;15.85;9.38;;;8.30;82.10;;;;;;5096346;28;20468;-57
2022/01/27 09:41:20;;;;;;;14.15;8.63;;;8.30;82.10;;;;;;5079710;28;20036;-58
2022/01/27 09:43:48;;;;;;;14.82;8.02;;;8.30;82.10;;;;;;5096683;28;20461;-59
2022/01/27 09:46:16;;;;;;;13.05;7.13;;;8.40;82.30;;;;;;5096657;28;20103;-59
2022/01/27 09:48:45;;;;;;;15.35;8.65;;;8.40;82.90;;;;;;5096773;28;20032;-59
2022/01/27 09:51:56;;;;;;;13.32;7.72;;;8.40;82.30;;;;;;5096115;28;20020;-59
2022/01/27 09:53:57;;;;;;;14.05;8.13;;;8.40;82.30;;;;;;5085852;28;20036;-58
2022/01/27 09:56:24;;;;;;;13.95;7.55;;;8.40;82.30;;;;;;5097515;28;20044;-58
2022/01/27 09:58:50;;;;;;;15.40;8.05;;;8.40;82.40;;;;;;5096581;28;20448;-60
2022/01/27 10:01:16;;;;;;;13.98;7.35;;;8.40;82.40;;;;;;5095442;28;20035;-58
2022/01/27 10:04:00;;;;;;;15.13;7.57;;;8.40;82.50;;;;;;5096093;28;20038;-59
2022/01/27 10:06:29;;;;;;;13.45;7.50;;;8.40;82.60;;;;;;5093790;28;20036;-58
2022/01/27 10:09:20;;;;;;;12.02;6.82;;;8.40;82.60;;;;;;5095987;28;20016;-59
2022/01/27 10:11:48;;;;;;;13.13;7.30;;;8.40;82.60;;;;;;5095162;28;20040;-58
2022/01/27 10:14:36;;;;;;;13.68;7.03;;;8.40;82.70;;;;;;5096825;28;20051;-58
2022/01/27 10:17:07;;;;;;;13.45;7.40;;;8.50;82.80;;;;;;5095598;28;20043;-58
2022/01/27 10:19:35;;;;;;;11.30;6.60;;;8.50;82.70;;;;;;5096760;28;20043;-59
2022/01/27 10:22:05;;;;;;;14.32;6.78;;;8.50;82.70;;;;;;5095829;28;20089;-59
2022/01/27 10:24:33;;;;;;;12.50;6.82;;;8.50;82.80;;;;;;5095203;28;20039;-59
2022/01/27 10:27:22;;;;;;;12.85;7.53;;;8.50;82.80;;;;;;5096311;28;20032;-60
2022/01/27 10:32:43;;;;;;;11.27;6.40;;;8.60;83.00;;;;;;5095710;28;20036;-59
2022/01/27 10:35:12;;;;;;;10.90;6.13;;;8.60;82.90;;;;;;5094508;28;20040;-59
2022/01/27 10:38:02;;;;;;;11.68;6.18;;;8.60;82.90;;;;;;5096446;28;20066;-57
2022/01/27 10:40:34;;;;;;;11.65;6.47;;;8.70;83.00;;;;;;5096480;28;20345;-58
2022/01/27 10:43:13;;;;;;;11.57;5.47;;;8.70;83.10;;;;;;5095466;28;20024;-57
2022/01/27 10:45:58;;;;;;;11.48;5.70;;;8.70;83.10;;;;;;5095730;28;20063;-56
2022/01/27 10:48:27;;;;;;;10.75;5.15;;;8.70;83.10;;;;;;5094893;28;20032;-59
2022/01/27 10:53:22;;;;;;;11.00;5.57;;;8.70;83.20;;;;;;5094247;28;20035;-58
2022/01/27 10:56:05;;;;;;;11.38;5.20;;;8.80;83.30;;;;;;5094752;28;20028;-59
2022/01/27 10:58:33;;;;;;;10.88;6.25;;;8.80;83.40;;;;;;5095234;28;20032;-59
2022/01/27 11:01:00;;;;;;;10.23;5.38;;;8.80;83.30;;;;;;5095591;28;20032;-59
2022/01/27 11:03:27;;;;;;;10.57;6.65;;;8.80;83.40;;;;;;5094840;28;20028;-59
2022/01/27 11:05:54;;;;;;;9.65;5.78;;;8.80;83.50;;;;;;5095425;28;20024;-58
2022/01/27 11:08:21;;;;;;;11.45;5.75;;;8.80;83.60;;;;;;5094996;28;20036;-59
2022/01/27 11:10:49;;;;;;;12.60;5.80;;;8.80;83.70;;;;;;5093494;28;20473;-59
2022/01/27 11:13:17;;;;;;;11.75;6.25;;;8.80;83.80;;;;;;5094519;28;20123;-59
2022/01/27 11:15:44;;;;;;;9.93;5.85;;;8.80;83.80;;;;;;5093733;28;20043;-59
2022/01/27 11:18:10;;;;;;;10.60;5.93;;;8.80;83.80;;;;;;5093589;28;20039;-59
2022/01/27 11:20:57;;;;;;;12.88;6.05;;;8.90;83.90;;;;;;5095322;28;20028;-59
2022/01/27 11:26:08;;;;;;;11.77;6.07;;;8.90;84.00;;;;;;5092285;28;20362;-60
2022/01/27 11:28:35;;;;;;;11.90;5.95;;;8.90;83.80;;;;;;5095246;28;20032;-60
2022/01/27 11:31:21;;;;;;;16.13;7.35;;;9.00;84.00;;;;;;5081903;28;20040;-59
2022/01/27 11:33:59;;;;;;;13.90;6.45;;;9.00;84.10;;;;;;5094656;28;20115;-59
2022/01/27 11:36:26;;;;;;;12.68;6.82;;;9.00;84.10;;;;;;5082349;28;20298;-59
2022/01/27 11:38:51;;;;;;;14.13;7.28;;;9.00;84.00;;;;;;5091626;28;20032;-59
2022/01/27 11:41:36;;;;;;;13.68;7.88;;;9.00;84.10;;;;;;5092607;28;20088;-59
2022/01/27 11:44:28;;;;;;;13.43;7.25;;;9.10;84.20;;;;;;5093816;28;20359;-59
2022/01/27 11:47:13;;;;;;;13.18;7.82;;;9.10;84.20;;;;;;5089465;28;20020;-58
2022/01/27 11:50:22;;;;;;;11.90;6.38;;;9.10;84.20;;;;;;5094586;28;20085;-59
2022/01/27 11:52:53;;;;;;;12.95;7.03;;;9.10;84.20;;;;;;5093448;28;20024;-59
2022/01/27 11:55:24;;;;;;;16.10;8.03;;;9.10;84.20;;;;;;5094098;28;20192;-58
2022/01/27 11:57:52;;;;;;;15.40;7.78;;;9.10;84.20;;;;;;5094166;28;20032;-59
2022/01/27 12:00:23;;;;;;;15.00;7.32;;;9.10;84.20;;;;;;5094628;28;20589;-59
2022/01/27 12:03:07;;;;;;;14.93;9.05;;;9.20;84.40;;;;;;5090580;28;20036;-57
2022/01/27 12:05:39;;;;;;;15.73;7.75;;;9.20;84.40;;;;;;5074552;28;20039;-59
2022/01/27 12:08:14;;;;;;;14.90;8.68;;;9.20;84.50;;;;;;5087225;28;20024;-59
2022/01/27 12:10:44;;;;;;;16.13;8.73;;;9.20;84.60;;;;;;5093420;28;20028;-57
2022/01/27 12:13:28;;;;;;;17.73;8.60;;;9.20;84.60;;;;;;5084834;28;20035;-57
2022/01/27 12:19:15;;;;;;;14.77;7.90;;;9.20;84.60;;;;;;5094546;28;20032;-59
2022/01/27 12:21:48;;;;;;;15.25;7.57;;;9.30;84.60;;;;;;5085019;28;20051;-61
2022/01/27 12:24:16;;;;;;;13.80;7.95;;;9.30;84.60;;;;;;5094199;28;20032;-60
2022/01/27 12:27:00;;;;;;;16.17;9.05;;;9.30;84.60;;;;;;5093365;28;20356;-59
2022/01/27 12:29:36;;;;;;;14.27;8.32;;;9.30;84.70;;;;;;5090052;28;20045;-57
2022/01/27 12:32:10;;;;;;;14.00;8.15;;;9.30;84.60;;;;;;5088310;28;20024;-60
2022/01/27 12:34:37;;;;;;;16.85;8.77;;;9.30;84.70;;;;;;5088733;28;20028;-59
2022/01/27 12:37:09;;;;;;;13.73;7.90;;;9.30;84.70;;;;;;5092761;28;20024;-59
2022/01/27 12:40:00;;;;;;;12.88;7.75;;;9.40;84.80;;;;;;5094136;28;20024;-60
2022/01/27 12:42:31;;;;;;;13.50;8.30;;;9.40;84.80;;;;;;5094497;28;20067;-60
2022/01/27 12:45:02;;;;;;;14.30;7.57;;;9.40;84.70;;;;;;5076766;28;20032;-60
2022/01/27 12:47:30;;;;;;;20.15;8.93;;;9.40;84.70;;;;;;5093426;28;20043;-60
2022/01/27 12:50:06;;;;;;;15.90;9.18;;;9.40;84.70;;;;;;5107441;28;20020;-60
2022/01/27 12:52:38;;;;;;;15.82;8.85;;;9.40;84.80;;;;;;5076033;28;20492;-60
2022/01/27 12:55:05;;;;;;;11.85;8.18;;;9.40;84.80;;;;;;5092884;28;20024;-60
2022/01/27 12:57:32;;;;;;;17.35;8.73;;;9.40;84.90;;;;;;5093777;28;20052;-60
2022/01/27 13:00:00;;;;;;;13.40;8.48;;;9.50;85.00;;;;;;5076179;28;20035;-59
2022/01/27 13:02:29;;;;;;;12.77;8.68;;;9.50;85.00;;;;;;5094133;28;20043;-60
2022/01/27 13:04:56;;;;;;;15.82;8.23;;;9.50;85.00;;;;;;5090866;28;20043;-60
2022/01/27 13:07:23;;;;;;;13.57;7.43;;;9.60;85.00;;;;;;5096604;28;20028;-60
2022/01/27 13:10:00;;;;;;;14.98;8.65;;;9.60;84.80;;;;;;5098210;28;20060;-60
2022/01/27 13:13:00;;;;;;;11.90;7.40;;;9.70;84.90;;;;;;5096343;28;20030;-60
2022/01/27 13:15:23;;;;;;;14.55;7.55;;;9.70;84.70;;;;;;5095959;28;20059;-60
2022/01/27 13:18:04;;;;;;;11.27;7.22;;;9.70;84.60;;;;;;5079494;28;20039;-60
2022/01/27 13:20:38;;;;;;;12.95;6.75;;;9.80;84.70;;;;;;5096256;28;20024;-59
2022/01/27 13:23:46;;;;;;;13.55;7.15;;;9.80;84.60;;;;;;5097542;28;20039;-60
2022/01/27 13:26:05;;;;;;;17.10;8.25;;;9.80;85.30;;;;;;5095044;28;20186;-59
2022/01/27 13:28:34;;;;;;;11.80;6.75;;;9.90;84.70;;;;;;5097346;28;20024;-60
2022/01/27 13:31:03;;;;;;;13.27;6.68;;;9.80;84.70;;;;;;5096184;28;20072;-61
2022/01/27 13:33:36;;;;;;;14.52;7.30;;;9.90;84.80;;;;;;5096300;28;20028;-60
2022/01/27 13:36:01;;;;;;;17.33;6.82;;;9.90;84.90;;;;;;5097406;28;20035;-59